createdAt,value
2022-11-10T05:49:22.539Z,37.13
2022-11-10T05:52:07.966Z,46.25
2022-11-10T05:54:55.480Z,40.40
2022-11-10T05:57:48.773Z,40.10
2022-11-10T06:00:34.351Z,39.47
2022-11-10T06:03:20.364Z,38.60
2022-11-10T06:06:06.263Z,40.93
2022-11-10T06:08:52.042Z,40.97
2022-11-10T06:11:37.391Z,40.30
2022-11-10T06:14:23.031Z,40.17
2022-11-10T06:17:08.626Z,40.53
2022-11-10T06:19:54.047Z,40.60
2022-11-10T06:22:39.756Z,39.00
2022-11-10T06:25:24.983Z,40.00
2022-11-10T06:28:10.981Z,39.50
2022-11-10T06:30:58.720Z,39.97
2022-11-10T06:33:44.157Z,39.93
2022-11-10T06:36:29.691Z,39.80
2022-11-10T06:39:15.251Z,41.70
2022-11-10T06:42:00.792Z,39.50
2022-11-10T06:44:45.984Z,40.60
2022-11-10T06:47:31.982Z,40.43
2022-11-10T06:50:17.567Z,39.73
2022-11-10T06:53:02.997Z,39.70
2022-11-10T06:55:48.047Z,40.47
2022-11-10T06:58:33.717Z,40.97
2022-11-10T07:01:22.700Z,41.20
2022-11-10T07:04:24.070Z,40.07
2022-11-10T07:07:10.946Z,40.63
2022-11-10T07:09:57.372Z,39.47
2022-11-10T07:12:42.875Z,39.60
2022-11-10T07:15:28.438Z,39.77
2022-11-10T07:18:16.234Z,40.30
2022-11-10T07:21:05.962Z,39.30
2022-11-10T07:23:51.205Z,38.13
2022-11-10T07:26:36.533Z,38.77
2022-11-10T07:29:21.800Z,39.13
2022-11-10T07:32:07.235Z,39.10
2022-11-10T07:34:52.681Z,38.80
2022-11-10T07:37:38.237Z,37.37
2022-11-10T07:40:24.089Z,39.27
2022-11-10T07:43:09.724Z,38.43
2022-11-10T07:45:55.214Z,39.20
2022-11-10T07:48:40.560Z,38.33
2022-11-10T07:51:27.058Z,37.97
2022-11-10T07:54:12.799Z,37.97
2022-11-10T07:56:58.242Z,38.20
2022-11-10T07:59:43.573Z,37.10
2022-11-10T08:02:29.021Z,42.95
2022-11-10T08:05:14.505Z,38.60
2022-11-10T08:08:00.478Z,37.57
2022-11-10T08:10:45.802Z,36.53
2022-11-10T08:13:30.959Z,36.83
2022-11-10T08:16:16.428Z,37.00
2022-11-10T08:19:01.882Z,36.90
2022-11-10T08:21:47.399Z,37.83
2022-11-10T08:24:32.815Z,36.50
2022-11-10T08:27:18.034Z,36.90
2022-11-10T08:30:03.960Z,36.10
2022-11-10T08:32:49.461Z,34.80
2022-11-10T08:35:37.828Z,36.33
2022-11-10T08:38:24.367Z,35.60
2022-11-10T08:41:09.828Z,34.83
2022-11-10T08:43:55.127Z,34.30
2022-11-10T08:46:42.617Z,33.63
2022-11-10T08:49:28.155Z,34.03
2022-11-10T08:52:14.137Z,33.07
2022-11-10T08:54:59.768Z,32.67
2022-11-10T08:57:44.871Z,32.20
2022-11-10T09:00:32.600Z,32.90
2022-11-10T09:03:20.915Z,33.63
2022-11-10T09:06:06.559Z,32.97
2022-11-10T09:08:52.045Z,33.30
2022-11-10T09:11:37.455Z,32.90
2022-11-10T09:14:22.961Z,32.73
2022-11-10T09:17:08.474Z,34.80
2022-11-10T09:19:53.902Z,33.43
2022-11-10T09:22:39.995Z,32.93
2022-11-10T09:25:25.247Z,34.17
2022-11-10T09:28:14.577Z,33.20
2022-11-10T09:31:00.151Z,34.23
2022-11-10T09:33:45.282Z,31.83
2022-11-10T09:36:31.241Z,32.30
2022-11-10T09:39:16.678Z,33.30
2022-11-10T09:42:03.912Z,32.93
2022-11-10T09:44:56.404Z,33.20
2022-11-10T09:47:57.210Z,33.43
2022-11-10T09:51:04.260Z,33.20
2022-11-10T09:54:04.371Z,32.83
2022-11-10T09:56:53.439Z,32.23
2022-11-10T09:59:39.451Z,31.77
2022-11-10T10:02:37.469Z,32.47
2022-11-10T10:05:40.776Z,31.33
2022-11-10T10:08:38.877Z,32.17
2022-11-10T10:11:42.344Z,31.77
2022-11-10T10:15:04.631Z,32.87
2022-11-10T10:18:08.142Z,32.07
2022-11-10T10:21:24.343Z,31.83
2022-11-10T10:24:22.060Z,30.93
2022-11-10T10:27:12.395Z,32.03
2022-11-10T10:29:57.573Z,31.87
2022-11-10T10:32:43.108Z,29.97
2022-11-10T10:35:28.768Z,30.70
2022-11-10T10:38:31.224Z,29.57
2022-11-10T10:41:27.356Z,29.80
2022-11-10T10:44:18.537Z,28.90
2022-11-10T10:47:05.106Z,30.13
2022-11-10T10:49:50.431Z,28.33
2022-11-10T10:52:35.815Z,29.93
2022-11-10T10:55:20.896Z,29.17
2022-11-10T10:58:26.955Z,29.23
2022-11-10T11:01:15.948Z,28.87
2022-11-10T11:04:06.408Z,28.43
2022-11-10T11:07:03.898Z,29.80
2022-11-10T11:09:49.579Z,28.93
2022-11-10T11:12:34.990Z,29.23
2022-11-10T11:15:30.599Z,27.93
2022-11-10T11:18:18.055Z,27.63
2022-11-10T11:21:21.037Z,26.50
2022-11-10T11:24:31.234Z,27.27
2022-11-10T11:27:31.970Z,26.83
2022-11-10T11:30:22.116Z,27.70
2022-11-10T11:33:37.997Z,26.73
2022-11-10T11:36:32.331Z,26.13
2022-11-10T11:39:35.550Z,26.07
2022-11-10T11:42:43.541Z,26.37
2022-11-10T11:45:50.681Z,24.87
2022-11-10T11:49:07.179Z,25.93
2022-11-10T11:52:21.773Z,24.40
2022-11-10T11:55:28.358Z,23.40
2022-11-10T11:58:41.065Z,24.27
2022-11-10T12:01:35.632Z,24.23
2022-11-10T12:04:39.858Z,22.47
2022-11-10T12:07:35.642Z,22.37
2022-11-10T12:10:27.823Z,22.40
2022-11-10T12:13:16.457Z,22.03
2022-11-10T12:16:02.549Z,23.50
2022-11-10T12:18:53.885Z,22.10
2022-11-10T12:21:58.204Z,22.00
2022-11-10T12:25:01.449Z,20.80
2022-11-10T12:27:51.587Z,21.03
2022-11-10T12:30:38.465Z,21.23
2022-11-10T12:33:34.685Z,20.53
2022-11-10T12:36:22.276Z,20.60
2022-11-10T12:39:18.401Z,21.13
2022-11-10T12:42:05.541Z,20.87
2022-11-10T12:44:59.742Z,21.60
2022-11-10T12:47:46.335Z,19.48
2022-11-10T12:50:49.247Z,19.97
2022-11-10T12:53:37.537Z,20.27
2022-11-10T12:56:30.124Z,19.03
2022-11-10T12:59:16.064Z,19.47
2022-11-10T13:02:03.607Z,18.97
2022-11-10T13:05:09.326Z,19.03
2022-11-10T13:08:13.853Z,19.97
2022-11-10T13:11:04.730Z,18.90
2022-11-10T13:13:59.222Z,18.10
2022-11-10T13:16:45.756Z,18.27
2022-11-10T13:19:32.847Z,23.00
2022-11-10T13:22:40.834Z,19.33
2022-11-10T13:25:39.096Z,18.37
2022-11-10T13:28:43.637Z,19.23
2022-11-10T13:31:39.991Z,20.13
2022-11-10T13:34:30.161Z,18.67
2022-11-10T13:37:34.499Z,19.63
2022-11-10T13:40:27.018Z,18.93
2022-11-10T13:43:18.918Z,19.37
2022-11-10T13:46:05.905Z,18.97
2022-11-10T13:49:14.323Z,18.37
2022-11-10T13:52:19.388Z,19.20
2022-11-10T13:55:13.229Z,19.00
2022-11-10T13:58:07.454Z,18.67
2022-11-10T14:01:13.223Z,18.87
2022-11-10T14:04:01.970Z,18.80
2022-11-10T14:06:50.915Z,19.57
2022-11-10T14:09:41.469Z,19.07
2022-11-10T14:12:42.219Z,19.17
2022-11-10T14:15:36.387Z,18.87
2022-11-10T14:18:24.971Z,18.37
2022-11-10T14:21:13.063Z,19.57
2022-11-10T14:24:11.286Z,19.57
2022-11-10T14:27:05.291Z,18.50
2022-11-10T14:30:03.378Z,17.67
2022-11-10T14:33:09.254Z,19.30
2022-11-10T14:35:57.317Z,18.83
2022-11-10T14:38:46.289Z,19.67
2022-11-10T14:41:32.298Z,20.13
2022-11-10T14:44:23.571Z,19.40
2022-11-10T14:47:27.740Z,19.67
2022-11-10T14:50:21.714Z,19.87
2022-11-10T14:53:20.019Z,19.87
2022-11-10T14:56:07.428Z,20.23
2022-11-10T14:58:53.797Z,20.70
2022-11-10T15:01:42.279Z,21.23
2022-11-10T15:04:30.292Z,21.27
2022-11-10T15:07:17.266Z,21.37
2022-11-10T15:10:12.471Z,21.33
2022-11-10T15:12:59.088Z,20.53
2022-11-10T15:15:44.658Z,20.17
2022-11-10T15:18:30.802Z,19.93
2022-11-10T15:21:17.504Z,19.93
2022-11-10T15:24:05.690Z,20.33
2022-11-10T15:26:51.287Z,20.27
2022-11-10T15:29:37.979Z,20.97
2022-11-10T15:32:25.369Z,20.63
2022-11-10T15:35:11.310Z,21.37
2022-11-10T15:38:01.311Z,20.50
2022-11-10T15:40:48.414Z,19.93
2022-11-10T15:43:34.408Z,20.53
2022-11-10T15:46:25.034Z,22.13
2022-11-10T15:49:32.707Z,20.20
2022-11-10T15:52:20.413Z,21.47
2022-11-10T15:55:06.451Z,20.43
2022-11-10T15:57:52.353Z,20.83
2022-11-10T16:00:38.479Z,20.43
2022-11-10T16:03:24.382Z,20.40
2022-11-10T16:06:16.994Z,21.17
2022-11-10T16:09:02.671Z,20.83
2022-11-10T16:11:48.597Z,20.87
2022-11-10T16:14:34.466Z,21.67
2022-11-10T16:17:20.352Z,20.07
2022-11-10T16:20:14.157Z,20.30
2022-11-10T16:23:00.088Z,20.27
2022-11-10T16:25:47.441Z,21.60
2022-11-10T16:28:33.252Z,20.20
2022-11-10T16:31:20.133Z,20.77
2022-11-10T16:34:05.815Z,19.63
2022-11-10T16:36:51.750Z,21.10
2022-11-10T16:39:37.666Z,20.10
2022-11-10T16:42:23.665Z,20.10
2022-11-10T16:45:19.677Z,20.13
2022-11-10T16:48:07.620Z,20.20
2022-11-10T16:50:54.215Z,19.30
2022-11-10T16:53:40.104Z,18.87
2022-11-10T16:56:27.124Z,19.77
2022-11-10T16:59:13.632Z,20.60
2022-11-10T17:01:59.710Z,18.67
2022-11-10T17:04:45.510Z,20.03
2022-11-10T17:07:31.666Z,20.03
2022-11-10T17:10:18.457Z,19.93
2022-11-10T17:13:04.460Z,20.73
2022-11-10T17:15:51.246Z,20.33
2022-11-10T17:18:37.412Z,21.13
2022-11-10T17:21:26.229Z,20.70
2022-11-10T17:24:16.256Z,20.80
2022-11-10T17:27:02.178Z,20.80
2022-11-10T17:29:48.305Z,21.07
2022-11-10T17:33:03.118Z,22.03
2022-11-10T17:35:47.305Z,22.67
2022-11-10T17:38:33.926Z,23.40
2022-11-10T17:41:20.758Z,22.30
2022-11-10T17:44:06.735Z,22.30
2022-11-10T17:46:52.654Z,22.13
2022-11-10T17:49:38.631Z,22.73
2022-11-10T17:52:24.585Z,24.57
2022-11-10T17:55:20.961Z,22.63
2022-11-10T17:58:06.854Z,23.57
2022-11-10T18:00:52.706Z,24.37
2022-11-10T18:03:38.755Z,25.70
2022-11-10T18:06:24.557Z,24.23
2022-11-10T18:09:10.566Z,24.47
2022-11-10T18:11:56.346Z,25.27
2022-11-10T18:14:42.170Z,24.77
2022-11-10T18:17:28.061Z,24.53
2022-11-10T18:20:14.433Z,24.27
2022-11-10T18:23:00.577Z,24.50
2022-11-10T18:25:46.522Z,24.90
2022-11-10T18:28:32.801Z,26.03
2022-11-10T18:31:19.040Z,24.90
2022-11-10T18:34:05.923Z,25.07
2022-11-10T18:36:52.340Z,24.80
2022-11-10T18:39:38.406Z,26.63
2022-11-10T18:42:24.748Z,25.37
2022-11-10T18:45:11.280Z,24.43
2022-11-10T18:48:01.488Z,24.87
2022-11-10T18:50:47.535Z,24.73
2022-11-10T18:53:38.020Z,24.03
2022-11-10T18:56:24.104Z,24.67
2022-11-10T18:59:10.254Z,24.70
2022-11-10T19:01:55.912Z,24.37
2022-11-10T19:04:41.775Z,24.50
2022-11-10T19:07:27.845Z,24.03
2022-11-10T19:10:13.787Z,23.60
2022-11-10T19:12:59.873Z,22.93
2022-11-10T19:15:45.630Z,23.33
2022-11-10T19:18:31.576Z,25.80
2022-11-10T19:21:18.994Z,30.87
2022-11-10T19:24:04.733Z,30.40
2022-11-10T19:26:51.319Z,30.23
2022-11-10T19:29:37.379Z,28.07
2022-11-10T19:32:24.984Z,27.20
2022-11-10T19:35:13.378Z,26.13
2022-11-10T19:37:59.202Z,26.17
2022-11-10T19:40:45.268Z,24.07
2022-11-10T19:43:31.479Z,23.93
2022-11-10T19:46:18.449Z,24.40
2022-11-10T19:49:04.724Z,24.37
2022-11-10T19:51:50.862Z,25.07
2022-11-10T19:54:36.541Z,25.00
2022-11-10T19:57:23.224Z,24.33
2022-11-10T20:00:09.160Z,23.73
2022-11-10T20:02:54.938Z,23.93
2022-11-10T20:05:41.007Z,24.87
2022-11-10T20:08:27.057Z,23.43
2022-11-10T20:11:15.106Z,24.37
2022-11-10T20:14:00.889Z,25.33
2022-11-10T20:16:46.826Z,24.97
2022-11-10T20:19:40.934Z,25.87
2022-11-10T20:22:27.573Z,24.77
2022-11-10T20:25:13.510Z,24.77
2022-11-10T20:28:03.382Z,25.70
2022-11-10T20:30:49.403Z,25.50
2022-11-10T20:33:35.391Z,24.83
2022-11-10T20:36:23.323Z,25.67
2022-11-10T20:39:09.382Z,26.20
2022-11-10T20:41:55.413Z,26.43
2022-11-10T20:44:41.427Z,26.37
2022-11-10T20:47:28.698Z,25.73
2022-11-10T20:50:17.294Z,26.20
2022-11-10T20:53:05.883Z,26.03
2022-11-10T20:55:57.788Z,25.63
2022-11-10T20:58:45.149Z,26.40
2022-11-10T21:01:32.594Z,26.93
2022-11-10T21:04:18.617Z,24.87
2022-11-10T21:07:04.684Z,25.03
2022-11-10T21:09:50.543Z,25.50
2022-11-10T21:12:51.343Z,27.47
2022-11-10T21:15:40.608Z,27.67
2022-11-10T21:18:28.364Z,28.10
2022-11-10T21:21:21.989Z,26.67
2022-11-10T21:24:08.227Z,27.33
2022-11-10T21:26:53.775Z,26.07
2022-11-10T21:29:39.980Z,26.37
2022-11-10T21:32:25.801Z,25.47
2022-11-10T21:35:11.711Z,26.30
2022-11-10T21:37:57.672Z,25.07
2022-11-10T21:40:43.542Z,26.40
2022-11-10T21:43:29.733Z,27.03
2022-11-10T21:46:15.670Z,26.50
2022-11-10T21:49:08.472Z,25.57
2022-11-10T21:51:54.423Z,24.40
2022-11-10T21:54:40.374Z,23.70
2022-11-10T21:57:26.421Z,23.47
2022-11-10T22:00:13.344Z,22.37
2022-11-10T22:03:00.263Z,22.00
2022-11-10T22:05:46.318Z,23.67
2022-11-10T22:08:32.276Z,26.53
2022-11-10T22:11:41.251Z,26.43
2022-11-10T22:14:45.601Z,26.40
